Map

Track Data

SID SEASON NUMBER BASIN SUBBASIN NAME ISO_TIME NATURE LAT LON WMO_WIND WMO_PRES WMO_AGENCY TRACK_TYPE DIST2LAND LANDFALL IFLAG USA_AGENCY USA_ATCF_ID USA_LAT USA_LON USA_RECORD USA_STATUS USA_WIND USA_PRES USA_SSHS USA_R34_NE USA_R34_SE USA_R34_SW USA_R34_NW USA_R50_NE USA_R50_SE USA_R50_SW USA_R50_NW USA_R64_NE USA_R64_SE USA_R64_SW USA_R64_NW USA_POCI USA_ROCI USA_RMW USA_EYE TOKYO_LAT TOKYO_LON TOKYO_GRADE TOKYO_WIND TOKYO_PRES TOKYO_R50_DIR TOKYO_R50_LONG TOKYO_R50_SHORT TOKYO_R30_DIR TOKYO_R30_LONG TOKYO_R30_SHORT TOKYO_LAND CMA_LAT CMA_LON CMA_CAT CMA_WIND CMA_PRES HKO_LAT HKO_LON HKO_CAT HKO_WIND HKO_PRES NEWDELHI_LAT NEWDELHI_LON NEWDELHI_GRADE NEWDELHI_WIND NEWDELHI_PRES NEWDELHI_CI NEWDELHI_DP NEWDELHI_POCI REUNION_LAT REUNION_LON REUNION_TYPE REUNION_WIND REUNION_PRES REUNION_TNUM REUNION_CI REUNION_RMW REUNION_R34_NE REUNION_R34_SE REUNION_R34_SW REUNION_R34_NW REUNION_R50_NE REUNION_R50_SE REUNION_R50_SW REUNION_R50_NW REUNION_R64_NE REUNION_R64_SE REUNION_R64_SW REUNION_R64_NW BOM_LAT BOM_LON BOM_TYPE BOM_WIND BOM_PRES BOM_TNUM BOM_CI BOM_RMW BOM_R34_NE BOM_R34_SE BOM_R34_SW BOM_R34_NW BOM_R50_NE BOM_R50_SE BOM_R50_SW BOM_R50_NW BOM_R64_NE BOM_R64_SE BOM_R64_SW BOM_R64_NW BOM_ROCI BOM_POCI BOM_EYE BOM_POS_METHOD BOM_PRES_METHOD NADI_LAT NADI_LON NADI_CAT NADI_WIND NADI_PRES WELLINGTON_LAT WELLINGTON_LON WELLINGTON_WIND WELLINGTON_PRES DS824_LAT DS824_LON DS824_STAGE DS824_WIND DS824_PRES TD9636_LAT TD9636_LON TD9636_STAGE TD9636_WIND TD9636_PRES TD9635_LAT TD9635_LON TD9635_WIND TD9635_PRES TD9635_ROCI NEUMANN_LAT NEUMANN_LON NEUMANN_CLASS NEUMANN_WIND NEUMANN_PRES MLC_LAT MLC_LON MLC_CLASS MLC_WIND MLC_PRES USA_GUST BOM_GUST BOM_GUST_PER REUNION_GUST REUNION_GUST_PER USA_SEAHGT USA_SEARAD_NE USA_SEARAD_SE USA_SEARAD_SW USA_SEARAD_NW STORM_SPEED STORM_DIR
1977277N15253 1977 94 EP MM HEATHER 1977-10-04 00:00:00 TS 15.3000 -107.200 30 hurdat_epa main 505 501 O________OO___ hurdat_epa EP081977 15.3000 -107.200 TD 30 -1 15.3000 -107.200 TC 30 15.3000 -107.200 1 30 11 297
1977277N15253 1977 94 EP MM HEATHER 1977-10-04 03:00:00 TS 15.5442 -107.702 main 515 506 P________PP___ EP081977 15.5403 -107.710 TD 32 -1 15.5403 -107.710 TC 32 15.5601 -107.669 1 31 11 298
1977277N15253 1977 94 EP MM HEATHER 1977-10-04 06:00:00 TS 15.8052 -108.188 35 hurdat_epa main 524 523 O________OP___ hurdat_epa EP081977 15.8000 -108.200 TS 35 0 15.8000 -108.200 TC 35 15.8258 -108.141 1 32 11 301
1977277N15253 1977 94 EP MM HEATHER 1977-10-04 09:00:00 TS 16.0946 -108.650 main 530 530 P________PP___ EP081977 16.0924 -108.658 TS 35 0 16.0924 -108.658 TC 35 16.1036 -108.618 1 33 11 304
1977277N15253 1977 94 EP MM HEATHER 1977-10-04 12:00:00 TS 16.4000 -109.100 35 hurdat_epa main 545 545 O________OO___ hurdat_epa EP081977 16.4000 -109.100 TS 35 0 16.4000 -109.100 TC 35 16.4000 -109.100 2 35 10 304
1977277N15253 1977 94 EP MM HEATHER 1977-10-04 15:00:00 TS 16.6862 -109.546 main 556 556 P________PP___ EP081977 16.6773 -109.535 TS 40 0 16.6773 -109.535 TC 40 16.7216 -109.590 2 40 11 305
1977277N15253 1977 94 EP MM HEATHER 1977-10-04 18:00:00 TS 17.0149 -110.017 45 hurdat_epa main 580 580 O________OP___ hurdat_epa EP081977 17.0000 -110.000 TS 45 0 17.0000 -110.000 TC 45 17.0746 -110.086 2 45 12 308
1977277N15253 1977 94 EP MM HEATHER 1977-10-04 21:00:00 TS 17.4351 -110.552 main 610 570 P________PP___ EP081977 17.4275 -110.542 TS 50 0 17.4275 -110.542 TC 50 17.4653 -110.590 2 50 14 311
1977277N15253 1977 94 EP MM HEATHER 1977-10-05 00:00:00 TS 17.9000 -111.100 55 hurdat_epa main 570 537 O________OO___ hurdat_epa EP081977 17.9000 -111.100 TS 55 0 17.9000 -111.100 TC 55 17.9000 -111.100 2 55 14 312
1977277N15253 1977 94 EP MM HEATHER 1977-10-05 03:00:00 TS 18.3480 -111.612 main 540 507 P________PP___ EP081977 18.3273 -111.601 TS 60 0 18.3273 -111.601 TC 60 18.4309 -111.657 2 60 14 314
1977277N15253 1977 94 EP MM HEATHER 1977-10-05 06:00:00 TS 18.8391 -112.123 65 hurdat_epa main 507 475 O________OP___ hurdat_epa EP081977 18.8000 -112.100 HU 65 1 18.8000 -112.100 TC 65 18.9956 -112.215 2 65 15 318
1977277N15253 1977 94 EP MM HEATHER 1977-10-05 09:00:00 TS 19.4515 -112.680 main 472 456 P________PP___ EP081977 19.4301 -112.664 HU 70 1 19.4301 -112.664 TC 70 19.5373 -112.741 2 70 15 319
1977277N15253 1977 94 EP MM HEATHER 1977-10-05 12:00:00 TS 20.0000 -113.200 75 hurdat_epa main 463 463 O________OO___ hurdat_epa EP081977 20.0000 -113.200 HU 75 1 20.0000 -113.200 TC 75 20.0000 -113.200 4 75 12 313
1977277N15253 1977 94 EP MM HEATHER 1977-10-05 15:00:00 TS 20.2945 -113.635 main 472 472 P________PP___ EP081977 20.3099 -113.661 HU 75 1 20.3099 -113.661 TC 75 20.2330 -113.534 4 72 9 304
1977277N15253 1977 94 EP MM HEATHER 1977-10-05 18:00:00 TS 20.4792 -113.960 75 hurdat_epa main 492 492 O________OP___ hurdat_epa EP081977 20.5000 -114.000 HU 75 1 20.5000 -114.000 TC 75 20.3961 -113.800 4 70 6 304
1977277N15253 1977 94 EP MM HEATHER 1977-10-05 21:00:00 TS 20.6171 -114.147 main 495 477 P________PP___ EP081977 20.6248 -114.173 HU 70 1 20.6248 -114.173 TC 70 20.5863 -114.040 4 67 5 323
1977277N15253 1977 94 EP MM HEATHER 1977-10-06 00:00:00 TS 20.9000 -114.300 65 hurdat_epa main 477 433 O________OO___ hurdat_epa EP081977 20.9000 -114.300 HU 65 1 20.9000 -114.300 TC 65 20.9000 -114.300 4 65 10 339
1977277N15253 1977 94 EP MM HEATHER 1977-10-06 03:00:00 TS 21.5635 -114.530 main 424 384 P________PP___ EP081977 21.5823 -114.498 HU 65 1 21.5823 -114.498 TC 65 21.4881 -114.657 4 65 16 341
1977277N15253 1977 94 EP MM HEATHER 1977-10-06 06:00:00 TS 22.3606 -114.848 65 hurdat_epa main 376 365 O________OP___ hurdat_epa EP081977 22.4000 -114.800 HU 65 1 22.4000 -114.800 TC 65 22.2030 -115.040 4 65 17 335
1977277N15253 1977 94 EP MM HEATHER 1977-10-06 09:00:00 TS 23.0574 -115.296 main 367 367 P________PP___ EP081977 23.0801 -115.262 HU 65 1 23.0801 -115.262 TC 65 22.9663 -115.429 4 65 16 327
1977277N15253 1977 94 EP MM HEATHER 1977-10-06 12:00:00 TS 23.7000 -115.800 65 hurdat_epa main 384 380 O________OO___ hurdat_epa EP081977 23.7000 -115.800 HU 65 1 23.7000 -115.800 TC 65 23.7000 -115.800 4 65 15 322
1977277N15253 1977 94 EP MM HEATHER 1977-10-06 15:00:00 TS 24.2724 -116.327 main 375 353 P________PP___ EP081977 24.2652 -116.360 HU 55 0 24.2652 -116.360 TC 55 24.3013 -116.194 4 60 14 322
1977277N15253 1977 94 EP MM HEATHER 1977-10-06 18:00:00 TS 24.8120 -116.751 45 hurdat_epa main 359 327 O________OP___ hurdat_epa EP081977 24.8000 -116.800 TS 45 0 24.8000 -116.800 TC 45 24.8600 -116.556 4 55 12 332
1977277N15253 1977 94 EP MM HEATHER 1977-10-06 21:00:00 TS 25.3575 -116.960 main 324 282 P________PP___ EP081977 25.3497 -116.990 TS 45 0 25.3497 -116.990 TC 45 25.3887 -116.840 4 50 11 348
1977277N15253 1977 94 EP MM HEATHER 1977-10-07 00:00:00 TS 25.9000 -117.000 45 hurdat_epa main 282 245 O________OO___ hurdat_epa EP081977 25.9000 -117.000 TS 45 0 25.9000 -117.000 TC 45 25.9000 -117.000 2 45 11 0
1977277N15253 1977 94 EP MM HEATHER 1977-10-07 03:00:00 TS 26.4529 -116.957 main 238 194 P________PP___ EP081977 26.4650 -116.945 TS 40 0 26.4650 -116.945 TC 40 26.4045 -117.003 2 40 11 9
1977277N15253 1977 94 EP MM HEATHER 1977-10-07 06:00:00 TS 26.9811 -116.815 35 hurdat_epa main 194 161 O________OP___ hurdat_epa EP081977 27.0000 -116.800 TS 35 0 27.0000 -116.800 TC 35 26.9054 -116.876 2 35 11 17
1977277N15253 1977 94 EP MM HEATHER 1977-10-07 09:00:00 TS 27.4568 -116.620 main 159 137 P________PP___ EP081977 27.4701 -116.610 TS 30 -1 27.4701 -116.610 TC 30 27.4036 -116.661 2 30 10 22
1977277N15253 1977 94 EP MM HEATHER 1977-10-07 12:00:00 TS 27.9000 -116.400 25 hurdat_epa main 137 O________OO___ hurdat_epa EP081977 27.9000 -116.400 TD 25 -1 27.9000 -116.400 TC 25 27.9000 -116.400 6 25 10 23

About IBTrACS Database

This database is a web-friendly format of International Best Track Archive for Climate Stewardship (IBTrACS), a global best track data archive curated by NOAA dating back to 1842.

Updated: 2021-10-08